Time;durP1;ratioP1;P1;durP2;ratioP2;P2;SDS_P1;SDS_P2;PMS_P1;PMS_P2;Temp;Humidity;BMP_temperature;BMP_pressure;BME280_temperature;BME280_humidity;BME280_pressure;Samples;Min_cycle;Max_cycle;Signal;HPM_P1;HPM_P2
2023/01/09 00:01:42;;;;;;;47.13;33.90;;;;;;;3.68;86.21;100055.91;5114030;28;20237;-55
2023/01/09 00:04:09;;;;;;;44.67;31.67;;;;;;;3.71;86.30;100049.28;5113978;28;20190;-56
2023/01/09 00:06:38;;;;;;;47.87;33.50;;;;;;;3.74;85.95;100046.91;5114281;28;20311;-55
2023/01/09 00:09:06;;;;;;;57.47;36.33;;;;;;;3.73;85.52;100047.72;5114129;28;20185;-56
2023/01/09 00:11:32;;;;;;;43.17;33.73;;;;;;;3.73;84.93;100045.19;5114114;28;20199;-56
2023/01/09 00:13:59;;;;;;;46.70;33.40;;;;;;;3.74;85.59;100043.47;5114055;28;20186;-55
2023/01/09 00:16:26;;;;;;;46.87;32.67;;;;;;;3.70;85.05;100044.13;5113676;28;20189;-56
2023/01/09 00:18:55;;;;;;;48.13;32.47;;;;;;;3.69;85.16;100038.19;5113850;28;20189;-55
2023/01/09 00:21:22;;;;;;;45.80;33.90;;;;;;;3.69;85.31;100047.47;5114178;28;20242;-55
2023/01/09 00:23:49;;;;;;;45.97;32.77;;;;;;;3.58;85.29;100026.59;5113564;28;20186;-56
2023/01/09 00:26:18;;;;;;;44.93;32.30;;;;;;;3.70;85.86;100039.06;5113734;28;20193;-56
2023/01/09 00:28:45;;;;;;;41.47;32.57;;;;;;;3.66;85.40;100037.13;5113716;28;20191;-56
2023/01/09 00:31:12;;;;;;;42.70;30.77;;;;;;;3.58;85.58;100026.59;5113657;28;20297;-56
2023/01/09 00:33:41;;;;;;;42.47;31.47;;;;;;;3.70;85.94;100041.59;5114036;28;20296;-56
2023/01/09 00:36:10;;;;;;;39.23;28.83;;;;;;;3.71;86.05;100051.81;5113860;28;20210;-56
2023/01/09 00:38:37;;;;;;;44.00;29.37;;;;;;;3.70;86.13;100050.09;5104606;28;20186;-56
2023/01/09 00:41:06;;;;;;;41.80;31.27;;;;;;;3.66;86.20;100025.31;5109477;28;20443;-56
2023/01/09 00:43:39;;;;;;;38.47;29.47;;;;;;;3.76;85.90;100034.28;5101226;28;20572;-56
2023/01/09 00:46:07;;;;;;;41.50;29.60;;;;;;;3.81;85.87;100037.94;5113813;28;20202;-56
2023/01/09 00:48:37;;;;;;;44.67;30.10;;;;;;;3.75;85.38;100028.34;5113350;28;20196;-55
2023/01/09 00:51:07;;;;;;;42.87;29.07;;;;;;;3.75;85.23;100032.53;5113253;28;20224;-55
2023/01/09 00:53:37;;;;;;;46.73;30.87;;;;;;;3.75;85.59;100028.34;5113475;28;20198;-55
2023/01/09 00:56:09;;;;;;;41.20;29.30;;;;;;;3.73;85.36;100026.50;5112900;28;20534;-55
2023/01/09 00:58:37;;;;;;;41.20;28.17;;;;;;;3.69;85.24;100022.06;5113088;28;20189;-56
2023/01/09 01:01:04;;;;;;;39.30;27.93;;;;;;;3.62;85.24;100022.53;5113159;28;20192;-56
2023/01/09 01:03:30;;;;;;;42.83;29.23;;;;;;;3.60;85.33;100027.53;5113029;28;20188;-56
2023/01/09 01:08:43;;;;;;;42.80;28.97;;;;;;;3.53;85.71;100016.19;5113169;28;20255;-55
2023/01/09 01:11:11;;;;;;;35.87;25.93;;;;;;;3.58;85.45;100024.03;5112740;28;20218;-55
2023/01/09 01:13:39;;;;;;;36.33;26.67;;;;;;;3.55;85.96;100019.69;5113589;28;20185;-55
2023/01/09 01:16:09;;;;;;;33.07;25.03;;;;;;;3.61;86.38;100010.63;5113120;28;20189;-55
2023/01/09 01:18:36;;;;;;;36.45;31.10;;;;;;;3.71;86.08;100013.72;5111632;28;20430;-55
2023/01/09 01:21:06;;;;;;;35.90;26.57;;;;;;;3.73;85.43;100001.97;5112867;28;20219;-55
2023/01/09 01:23:33;;;;;;;34.87;25.77;;;;;;;3.78;84.89;100004.75;5112830;28;20255;-55
2023/01/09 01:26:04;;;;;;;39.30;28.33;;;;;;;3.72;84.91;99992.59;5113124;28;20816;-56
2023/01/09 01:28:31;;;;;;;34.27;26.83;;;;;;;3.74;84.74;100005.38;5112728;28;20190;-55
2023/01/09 01:30:57;;;;;;;34.73;24.97;;;;;;;3.72;84.65;100000.22;5111824;28;20225;-55
2023/01/09 01:33:24;;;;;;;33.00;23.90;;;;;;;3.75;84.39;99997.84;5112748;28;20602;-55
2023/01/09 01:35:51;;;;;;;30.17;23.60;;;;;;;3.58;84.54;99973.22;5112620;28;20655;-56
2023/01/09 01:38:18;;;;;;;33.87;24.47;;;;;;;3.61;84.80;99996.25;5113195;28;20193;-56
2023/01/09 01:40:44;;;;;;;35.10;25.43;;;;;;;3.58;84.71;99996.09;5112709;28;20201;-55
2023/01/09 01:43:13;;;;;;;33.23;25.70;;;;;;;3.59;84.41;99982.63;5112507;28;20186;-55
2023/01/09 01:45:40;;;;;;;37.57;25.53;;;;;;;3.53;84.28;99977.22;5112948;28;20199;-54
2023/01/09 01:48:09;;;;;;;34.87;25.83;;;;;;;3.50;84.89;99971.97;5112632;28;20211;-56
2023/01/09 01:50:39;;;;;;;34.53;25.40;;;;;;;3.52;85.11;99973.78;5112438;28;20574;-56
2023/01/09 01:53:12;;;;;;;36.00;25.87;;;;;;;3.50;84.86;99977.94;5113271;28;20192;-55
2023/01/09 01:55:42;;;;;;;37.90;30.40;;;;;;;3.60;84.36;99971.63;5111659;28;20423;-54
2023/01/09 01:58:12;;;;;;;36.83;26.97;;;;;;;3.58;84.11;99966.50;5112518;28;20227;-55
2023/01/09 02:00:45;;;;;;;36.80;24.80;;;;;;;3.54;84.28;99968.81;5110761;28;20192;-55
2023/01/09 02:03:15;;;;;;;32.30;24.07;;;;;;;3.42;84.40;99951.25;5092176;28;20616;-55
2023/01/09 02:05:42;;;;;;;33.07;24.03;;;;;;;3.39;85.01;99957.84;5092553;28;20188;-55
2023/01/09 02:08:09;;;;;;;33.83;23.47;;;;;;;3.37;85.55;99959.44;5092573;28;20192;-55
2023/01/09 02:10:38;;;;;;;37.17;25.07;;;;;;;3.35;86.04;99961.88;5091826;28;20260;-55
2023/01/09 02:13:06;;;;;;;35.63;24.67;;;;;;;3.18;85.87;99937.31;5107476;28;20182;-55
2023/01/09 02:15:56;;;;;;;35.43;25.47;;;;;;;3.28;85.64;99951.34;5112026;28;20200;-56
2023/01/09 02:18:50;;;;;;;31.90;24.20;;;;;;;3.23;86.13;99945.16;5106784;28;20436;-55
2023/01/09 02:21:29;;;;;;;31.70;24.00;;;;;;;3.18;86.21;99937.31;5110534;28;20597;-55
2023/01/09 02:24:26;;;;;;;34.70;23.93;;;;;;;3.21;86.05;99940.00;5111987;28;20187;-55
2023/01/09 02:27:13;;;;;;;35.97;25.43;;;;;;;3.24;86.21;99946.91;5101718;28;20253;-54
2023/01/09 02:30:23;;;;;;;32.80;23.77;;;;;;;3.21;86.37;99946.75;5092046;28;20194;-55
2023/01/09 02:33:02;;;;;;;28.43;22.90;;;;;;;3.19;86.19;99943.22;5092501;28;20188;-55
2023/01/09 02:35:50;;;;;;;31.93;23.70;;;;;;;3.16;86.39;99938.03;5092189;28;20186;-55
2023/01/09 02:38:24;;;;;;;28.47;22.77;;;;;;;3.16;86.34;99931.25;5088691;28;20292;-56
2023/01/09 02:40:56;;;;;;;36.23;28.40;;;;;;;3.19;86.82;99926.34;5090506;28;20466;-56
2023/01/09 02:43:24;;;;;;;32.00;25.47;;;;;;;3.19;86.41;99928.00;5095031;28;20196;-55
2023/01/09 02:45:52;;;;;;;32.23;24.00;;;;;;;3.16;86.09;99930.41;5095742;28;20200;-55
2023/01/09 02:48:19;;;;;;;35.13;23.07;;;;;;;3.14;86.14;99924.34;5110264;28;20553;-55
2023/01/09 02:50:53;;;;;;;31.60;23.60;;;;;;;3.12;86.24;99921.75;5115668;28;20219;-55
2023/01/09 02:53:48;;;;;;;36.67;25.40;;;;;;;3.10;86.20;99923.34;5115666;28;20564;-55
2023/01/09 02:56:35;;;;;;;33.07;25.30;;;;;;;3.03;86.43;99920.38;5116032;28;20189;-56
2023/01/09 02:59:25;;;;;;;36.80;26.27;;;;;;;3.02;86.73;99926.28;5115933;28;20560;-55
2023/01/09 03:02:09;;;;;;;34.47;24.97;;;;;;;2.99;86.68;99915.13;5107733;28;20195;-55
2023/01/09 03:04:47;;;;;;;38.33;27.07;;;;;;;2.94;86.51;99919.09;5115302;28;20186;-55
2023/01/09 03:07:22;;;;;;;35.27;25.90;;;;;;;2.99;86.46;99924.44;5115434;28;20526;-54
2023/01/09 03:09:52;;;;;;;38.33;27.23;;;;;;;2.98;86.37;99927.75;5115239;28;20552;-54
2023/01/09 03:12:21;;;;;;;35.67;25.93;;;;;;;2.96;86.44;99920.09;5107070;28;20278;-55
2023/01/09 03:14:50;;;;;;;38.63;27.47;;;;;;;2.99;86.21;99919.38;5103046;28;20194;-55
2023/01/09 03:17:24;;;;;;;35.43;27.23;;;;;;;2.87;86.09;99928.88;5108750;28;20243;-55
2023/01/09 03:19:54;;;;;;;35.37;26.43;;;;;;;2.82;86.49;99926.09;5109619;28;20572;-55
2023/01/09 03:22:21;;;;;;;40.53;28.63;;;;;;;2.84;86.41;99924.50;5102773;28;20187;-55
2023/01/09 03:24:48;;;;;;;37.47;27.60;;;;;;;2.88;86.23;99921.31;5109129;28;20662;-55
2023/01/09 03:27:15;;;;;;;37.33;27.63;;;;;;;2.86;86.13;99920.38;5114768;28;20197;-55
2023/01/09 03:29:42;;;;;;;37.90;27.97;;;;;;;2.80;86.14;99922.56;5114229;28;20194;-54
2023/01/09 03:32:09;;;;;;;42.77;27.20;;;;;;;2.85;86.23;99923.72;5113249;28;20215;-54
2023/01/09 03:34:37;;;;;;;35.77;26.80;;;;;;;2.82;86.61;99910.88;5114742;28;20184;-55
2023/01/09 03:37:04;;;;;;;34.57;26.17;;;;;;;2.83;86.01;99925.28;5114702;28;20195;-55
2023/01/09 03:39:31;;;;;;;34.37;27.13;;;;;;;2.84;86.23;99919.44;5114430;28;20282;-55
2023/01/09 03:41:58;;;;;;;36.60;25.93;;;;;;;2.83;86.22;99919.34;5114707;28;20294;-55
2023/01/09 03:44:25;;;;;;;33.07;25.30;;;;;;;2.80;86.03;99912.44;5115089;28;20622;-55
2023/01/09 03:46:52;;;;;;;31.43;24.40;;;;;;;2.92;85.56;99925.78;5114482;28;20189;-55
2023/01/09 03:49:18;;;;;;;39.13;25.27;;;;;;;2.90;85.91;99927.38;5114768;28;20199;-55
2023/01/09 03:51:47;;;;;;;36.45;31.17;;;;;;;2.93;85.56;99904.69;5113369;28;20437;-55
2023/01/09 03:54:13;;;;;;;34.87;26.80;;;;;;;3.13;85.20;99917.56;5113341;28;20245;-55
2023/01/09 03:56:40;;;;;;;31.70;25.57;;;;;;;3.12;84.79;99909.06;5114266;27;20215;-54
2023/01/09 03:59:07;;;;;;;35.87;26.93;;;;;;;3.15;84.69;99921.91;5114132;28;20194;-55
2023/01/09 04:01:34;;;;;;;33.63;24.20;;;;;;;3.15;84.26;99921.91;5103986;28;20208;-55
2023/01/09 04:04:00;;;;;;;39.30;25.23;;;;;;;3.19;84.58;99928.88;5112056;28;20205;-55
2023/01/09 04:06:27;;;;;;;35.47;25.43;;;;;;;3.22;84.13;99928.16;5113927;28;20218;-55
2023/01/09 04:08:55;;;;;;;35.10;24.77;;;;;;;3.21;84.44;99911.19;5113926;28;20723;-55
2023/01/09 04:11:22;;;;;;;37.60;25.33;;;;;;;3.23;84.79;99920.63;5113806;28;20619;-55
2023/01/09 04:13:49;;;;;;;31.67;24.50;;;;;;;3.30;84.21;99926.88;5114215;28;20193;-55
2023/01/09 04:16:16;;;;;;;36.87;26.47;;;;;;;3.21;84.01;99904.47;5113920;28;20252;-55
2023/01/09 04:18:42;;;;;;;34.63;24.80;;;;;;;3.33;83.72;99927.94;5110772;28;20589;-55
2023/01/09 04:21:09;;;;;;;37.37;26.43;;;;;;;3.38;83.94;99928.16;5104427;28;20199;-55
2023/01/09 04:23:36;;;;;;;36.23;26.70;;;;;;;3.35;83.49;99933.09;5093118;28;20191;-55
2023/01/09 04:26:04;;;;;;;34.70;25.33;;;;;;;3.34;83.53;99941.50;5107634;28;20196;-56
2023/01/09 04:28:31;;;;;;;36.10;25.20;;;;;;;3.35;83.26;99933.94;5104455;28;20748;-55
2023/01/09 04:30:58;;;;;;;32.70;24.53;;;;;;;3.35;83.76;99940.72;5113672;28;20275;-55
2023/01/09 04:33:25;;;;;;;38.97;26.70;;;;;;;3.36;83.67;99937.38;5113569;28;20196;-55
2023/01/09 04:35:51;;;;;;;39.93;25.77;;;;;;;3.40;83.39;99936.75;5113567;28;20193;-55
2023/01/09 04:38:18;;;;;;;34.43;25.27;;;;;;;3.36;82.96;99938.25;5113328;28;20602;-54
2023/01/09 04:40:47;;;;;;;32.87;25.23;;;;;;;3.29;83.59;99941.28;5114343;28;20191;-55
2023/01/09 04:43:15;;;;;;;33.93;25.67;;;;;;;3.21;83.45;99954.38;5113531;28;20245;-55
2023/01/09 04:45:42;;;;;;;36.10;24.60;;;;;;;3.07;84.43;99952.75;5113409;28;20187;-55
2023/01/09 04:48:09;;;;;;;36.93;25.10;;;;;;;3.01;84.96;99949.88;5113360;28;20187;-55
2023/01/09 04:50:35;;;;;;;38.55;30.35;;;;;;;3.06;85.20;99939.19;5112620;28;20430;-55
2023/01/09 04:53:02;;;;;;;36.30;27.47;;;;;;;3.18;85.43;99944.03;5108990;28;20197;-55
2023/01/09 04:55:29;;;;;;;39.27;26.80;;;;;;;3.22;86.02;99943.41;5113051;28;20534;-55
2023/01/09 04:57:56;;;;;;;39.73;30.03;;;;;;;3.25;85.46;99948.63;5113325;28;20272;-55
2023/01/09 05:00:24;;;;;;;43.83;32.97;;;;;;;3.38;85.23;99944.25;5112575;28;20434;-56
2023/01/09 05:02:51;;;;;;;44.20;29.57;;;;;;;3.44;84.20;99941.16;5113163;28;20248;-55
2023/01/09 05:05:18;;;;;;;36.27;27.47;;;;;;;3.54;83.76;99948.50;5112648;28;20195;-55
2023/01/09 05:07:44;;;;;;;36.07;28.13;;;;;;;3.55;83.09;99934.97;5111837;28;20651;-55
2023/01/09 05:10:12;;;;;;;46.03;26.53;;;;;;;3.59;83.12;99941.97;5112983;28;20212;-54
2023/01/09 05:12:39;;;;;;;35.80;26.33;;;;;;;3.63;82.90;99942.97;5111597;28;20215;-55
2023/01/09 05:15:08;;;;;;;38.13;27.10;;;;;;;3.66;82.57;99948.22;5112803;28;20194;-55
2023/01/09 05:17:36;;;;;;;37.77;26.93;;;;;;;3.67;81.94;99945.75;5111812;28;20191;-55
2023/01/09 05:20:04;;;;;;;38.80;27.50;;;;;;;3.65;82.31;99936.31;5110340;28;20560;-55
2023/01/09 05:22:30;;;;;;;36.23;29.03;;;;;;;3.54;81.89;99940.88;5108956;28;20200;-55
2023/01/09 05:24:57;;;;;;;39.37;29.03;;;;;;;3.53;82.82;99937.44;5107423;27;20256;-55
2023/01/09 05:27:26;;;;;;;40.90;30.63;;;;;;;3.57;82.41;99941.03;5111154;28;20203;-55
2023/01/09 05:29:52;;;;;;;41.40;29.30;;;;;;;3.58;82.55;99941.09;5112068;28;20190;-57
2023/01/09 05:32:20;;;;;;;37.67;28.57;;;;;;;3.64;82.45;99945.59;5112475;28;20216;-55
2023/01/09 05:34:49;;;;;;;42.47;32.28;;;;;;;3.70;82.96;99952.66;5109010;28;20446;-56
2023/01/09 05:37:15;;;;;;;47.40;30.57;;;;;;;3.79;82.69;99950.59;5113862;28;20271;-55
2023/01/09 05:39:42;;;;;;;37.23;28.27;;;;;;;3.79;81.73;99951.44;5113235;28;20198;-55
2023/01/09 05:42:09;;;;;;;39.00;28.67;;;;;;;3.83;81.59;99947.41;5111520;28;20241;-56
2023/01/09 05:44:36;;;;;;;39.07;28.60;;;;;;;3.79;81.53;99946.34;5109161;28;20702;-57
2023/01/09 05:47:02;;;;;;;38.93;28.20;;;;;;;3.80;81.35;99937.94;5109953;28;20191;-56
2023/01/09 05:49:29;;;;;;;39.40;30.33;;;;;;;3.81;82.00;99944.78;5110938;28;20190;-55
2023/01/09 05:51:57;;;;;;;39.50;29.00;;;;;;;3.82;81.33;99943.13;5110541;28;20224;-55
2023/01/09 05:54:24;;;;;;;42.40;29.60;;;;;;;3.78;81.75;99938.69;5110976;28;20197;-56
2023/01/09 05:56:51;;;;;;;42.93;27.80;;;;;;;3.78;81.94;99943.75;5107308;28;20215;-55
2023/01/09 05:59:18;;;;;;;41.33;29.90;;;;;;;3.76;81.88;99936.06;5106705;28;20191;-56
2023/01/09 06:01:45;;;;;;;38.23;27.77;;;;;;;3.80;82.97;99945.56;5110903;28;20202;-55
2023/01/09 06:04:11;;;;;;;42.60;29.37;;;;;;;3.87;82.21;99949.31;5122144;28;20193;-55
2023/01/09 06:06:39;;;;;;;51.67;30.87;;;;;;;3.89;82.45;99946.03;5123279;28;20198;-56
2023/01/09 06:09:08;;;;;;;43.33;31.10;;;;;;;3.93;81.10;99935.22;5117501;28;20256;-55
2023/01/09 06:11:37;;;;;;;47.23;31.13;;;;;;;3.84;81.42;99934.78;5111603;28;20259;-55
2023/01/09 06:14:04;;;;;;;50.50;31.53;;;;;;;3.89;80.89;99933.34;5112043;28;20193;-55
2023/01/09 06:16:31;;;;;;;49.63;34.77;;;;;;;3.88;81.20;99948.50;5111978;28;20239;-56
2023/01/09 06:18:58;;;;;;;50.27;32.80;;;;;;;3.85;81.07;99939.03;5115857;28;20199;-56
2023/01/09 06:21:24;;;;;;;49.13;29.23;;;;;;;3.85;81.46;99928.00;5115855;28;20190;-56
2023/01/09 06:23:51;;;;;;;45.67;30.00;;;;;;;3.68;81.02;99908.53;5115838;28;20197;-55
2023/01/09 06:26:19;;;;;;;36.90;28.97;;;;;;;3.87;80.97;99940.03;5115834;28;20190;-55
2023/01/09 06:28:46;;;;;;;52.17;31.50;;;;;;;3.87;81.24;99937.47;5126387;27;20714;-55
2023/01/09 06:31:13;;;;;;;45.63;30.47;;;;;;;3.96;81.88;99949.75;5116716;27;20279;-55
2023/01/09 06:33:40;;;;;;;38.47;29.57;;;;;;;4.00;80.90;99946.56;5111469;28;20251;-55
2023/01/09 06:36:07;;;;;;;42.30;29.50;;;;;;;3.84;81.03;99909.38;5116088;28;20198;-55
2023/01/09 06:38:34;;;;;;;43.20;29.73;;;;;;;3.92;81.15;99928.41;5115633;28;20722;-55
2023/01/09 06:41:01;;;;;;;41.30;29.00;;;;;;;3.85;81.14;99922.91;5111888;28;20194;-56
2023/01/09 06:43:30;;;;;;;43.80;30.67;;;;;;;3.87;81.35;99932.41;5114783;28;20552;-56
2023/01/09 06:45:57;;;;;;;49.13;31.87;;;;;;;3.91;81.47;99929.19;5114658;27;20183;-56
2023/01/09 06:48:24;;;;;;;47.13;30.87;;;;;;;3.93;81.48;99927.59;5114715;28;20256;-56
2023/01/09 06:50:51;;;;;;;44.50;31.80;;;;;;;3.76;81.44;99900.50;5115986;27;20742;-54
2023/01/09 06:53:18;;;;;;;43.03;31.53;;;;;;;4.04;81.44;99930.66;5123596;27;20216;-56
2023/01/09 06:55:45;;;;;;;47.50;31.23;;;;;;;4.06;81.34;99932.50;5125763;27;20181;-57
2023/01/09 06:58:12;;;;;;;50.23;32.53;;;;;;;4.06;81.85;99932.50;5114419;28;20306;-55
2023/01/09 07:00:41;;;;;;;42.63;32.60;;;;;;;4.08;81.09;99942.72;5114961;28;20263;-55
2023/01/09 07:03:08;;;;;;;45.40;32.33;;;;;;;3.94;81.31;99915.75;5115091;28;20251;-55
2023/01/09 07:05:40;;;;;;;44.87;31.57;;;;;;;4.16;81.36;99941.44;5114915;28;20649;-55
2023/01/09 07:08:07;;;;;;;45.20;31.27;;;;;;;4.26;81.48;99946.16;5115232;28;20256;-54
2023/01/09 07:10:34;;;;;;;44.27;31.23;;;;;;;4.31;80.90;99943.84;5114992;28;20244;-56
2023/01/09 07:13:01;;;;;;;43.00;31.23;;;;;;;4.34;80.63;99941.44;5114531;28;20218;-55
2023/01/09 07:15:28;;;;;;;46.67;31.07;;;;;;;4.37;80.41;99947.53;5115314;28;20201;-55
2023/01/09 07:17:56;;;;;;;43.30;33.27;;;;;;;4.42;80.43;99942.69;5114996;28;20200;-55
2023/01/09 07:20:23;;;;;;;44.83;31.93;;;;;;;4.37;80.29;99934.81;5114786;28;20174;-56
2023/01/09 07:22:50;;;;;;;47.50;33.33;;;;;;;4.44;80.03;99928.34;5114589;28;20198;-56
2023/01/09 07:25:17;;;;;;;45.83;33.70;;;;;;;4.44;80.58;99931.78;5114835;28;20704;-56
2023/01/09 07:27:43;;;;;;;51.70;37.20;;;;;;;4.38;79.82;99931.47;5114494;28;20232;-56
2023/01/09 07:30:11;;;;;;;55.50;35.47;;;;;;;4.11;80.92;99931.03;5114475;28;20190;-56
2023/01/09 07:32:39;;;;;;;67.77;36.47;;;;;;;4.09;80.89;99922.44;5114486;28;20227;-56
2023/01/09 07:35:09;;;;;;;48.40;36.70;;;;;;;3.90;82.35;99899.47;5114493;28;20283;-55
2023/01/09 07:37:36;;;;;;;55.00;39.03;;;;;;;3.89;82.29;99923.16;5112711;28;20560;-56
2023/01/09 07:40:04;;;;;;;66.13;42.20;;;;;;;3.70;83.25;99923.06;5107016;28;20614;-56
2023/01/09 07:42:31;;;;;;;73.97;43.50;;;;;;;3.64;84.74;99919.31;5110933;28;20194;-55
2023/01/09 07:44:58;;;;;;;76.43;50.43;;;;;;;3.64;85.31;99915.13;5112488;28;20529;-56
2023/01/09 07:47:24;;;;;;;81.00;43.90;;;;;;;3.69;85.41;99911.13;5113550;28;20566;-56
2023/01/09 07:49:51;;;;;;;76.50;42.97;;;;;;;3.69;85.29;99908.59;5110284;28;20183;-56
2023/01/09 07:52:19;;;;;;;68.67;44.83;;;;;;;3.80;85.34;99911.66;5110910;28;20211;-56
2023/01/09 07:54:46;;;;;;;81.83;46.53;;;;;;;3.80;86.11;99910.00;5110347;28;20265;-56
2023/01/09 07:57:13;;;;;;;72.23;44.83;;;;;;;3.88;85.99;99916.31;5111868;28;20224;-56
2023/01/09 07:59:40;;;;;;;81.63;45.77;;;;;;;3.87;86.40;99909.53;5113448;28;20191;-56
2023/01/09 08:02:08;;;;;;;87.97;47.10;;;;;;;3.95;86.41;99915.84;5113285;28;20192;-56
2023/01/09 08:04:35;;;;;;;82.30;44.67;;;;;;;3.92;85.68;99915.69;5113555;28;20584;-56
2023/01/09 08:07:02;;;;;;;78.27;44.17;;;;;;;3.94;86.13;99906.47;5113305;28;20180;-56
2023/01/09 08:09:30;;;;;;;90.17;44.63;;;;;;;3.99;86.26;99909.22;5113629;28;20186;-55
2023/01/09 08:11:57;;;;;;;77.47;48.80;;;;;;;4.09;86.03;99917.34;5113359;28;20215;-56
2023/01/09 08:14:24;;;;;;;102.37;50.40;;;;;;;4.15;86.90;99907.50;5108784;28;20283;-55
2023/01/09 08:16:51;;;;;;;97.93;51.87;;;;;;;4.20;86.60;99910.28;5113671;27;20189;-55
2023/01/09 08:19:17;;;;;;;115.73;69.10;;;;;;;4.07;87.72;99902.84;5117482;27;20438;-56
2023/01/09 08:21:44;;;;;;;101.73;52.43;;;;;;;4.08;88.58;99904.59;5118349;27;20194;-56
2023/01/09 08:24:11;;;;;;;105.07;51.83;;;;;;;3.96;89.29;99906.53;5113260;28;20187;-56
2023/01/09 08:26:39;;;;;;;104.63;51.67;;;;;;;3.89;88.96;99910.47;5112311;28;20654;-56
2023/01/09 08:29:06;;;;;;;107.17;51.83;;;;;;;3.93;90.33;99901.28;5113325;28;20252;-56
2023/01/09 08:31:33;;;;;;;108.60;50.30;;;;;;;4.00;90.03;99895.72;5107697;28;20203;-56
2023/01/09 08:34:00;;;;;;;103.30;50.07;;;;;;;3.81;90.16;99877.84;5111170;28;20190;-56
2023/01/09 08:36:26;;;;;;;110.00;51.47;;;;;;;3.95;91.29;99892.09;5112772;28;20278;-56
2023/01/09 08:38:53;;;;;;;128.10;53.07;;;;;;;4.16;90.85;99903.28;5112611;28;20240;-57
2023/01/09 08:47:05;;;;;;;116.87;52.37;;;;;;;4.55;89.51;99887.34;5111450;28;20194;-56
2023/01/09 08:49:32;;;;;;;115.43;54.03;;;;;;;4.67;89.48;99893.00;5111624;28;20194;-56
2023/01/09 08:51:59;;;;;;;113.67;51.83;;;;;;;4.58;88.95;99887.50;5109454;28;20275;-56
2023/01/09 08:54:26;;;;;;;138.20;68.35;;;;;;;4.59;88.84;99883.25;5111170;28;20438;-56
2023/01/09 08:56:53;;;;;;;129.83;59.67;;;;;;;4.47;89.38;99887.78;5112443;28;20210;-56
2023/01/09 08:59:21;;;;;;;123.23;59.77;;;;;;;4.60;89.17;99893.53;5109593;28;20773;-56
2023/01/09 09:01:48;;;;;;;110.00;59.20;;;;;;;4.59;89.11;99886.69;5110898;28;20187;-56
2023/01/09 09:04:15;;;;;;;122.33;56.90;;;;;;;4.68;89.17;99884.56;5111908;28;20188;-56
2023/01/09 09:06:41;;;;;;;117.57;54.33;;;;;;;4.60;89.19;99879.91;5111726;28;20671;-56
2023/01/09 09:09:08;;;;;;;123.13;55.43;;;;;;;4.64;90.03;99874.19;5112142;28;20210;-55
2023/01/09 09:11:35;;;;;;;118.77;58.33;;;;;;;4.74;90.12;99876.34;5111879;28;20196;-56
2023/01/09 09:15:11;;;;;;;133.97;58.47;;;;;;;4.81;89.50;99870.69;5111950;28;20306;-57
2023/01/09 09:16:51;;;;;;;134.53;62.90;;;;;;;5.02;88.59;99868.25;5105276;28;20197;-57
2023/01/09 09:19:18;;;;;;;113.33;55.03;;;;;;;5.02;88.72;99868.25;5111890;28;20202;-57
2023/01/09 09:21:45;;;;;;;125.33;57.53;;;;;;;5.30;88.03;99877.13;5111655;28;20191;-57
2023/01/09 09:24:12;;;;;;;146.57;60.90;;;;;;;5.40;87.02;99875.00;5105678;28;20252;-57
2023/01/09 09:26:39;;;;;;;133.70;58.13;;;;;;;5.35;86.78;99864.63;5093926;28;20266;-57
2023/01/09 09:29:06;;;;;;;128.17;56.80;;;;;;;5.46;86.75;99858.31;5092446;28;20570;-57
2023/01/09 09:31:33;;;;;;;134.27;59.33;;;;;;;5.47;86.71;99860.00;5091943;28;20193;-56
2023/01/09 09:34:01;;;;;;;138.60;61.50;;;;;;;5.59;87.29;99859.66;5092103;28;20223;-57
2023/01/09 09:36:29;;;;;;;139.50;60.57;;;;;;;5.80;86.77;99850.34;5092109;28;20184;-56
2023/01/09 09:38:56;;;;;;;137.67;58.20;;;;;;;6.02;85.59;99847.88;5092415;28;20703;-56
2023/01/09 09:44:45;;;;;;;133.50;57.70;;;;;;;6.31;83.77;99837.16;5107687;28;20199;-56
2023/01/09 09:47:25;;;;;;;132.97;59.07;;;;;;;6.22;82.96;99829.13;5109230;28;20218;-57
2023/01/09 09:50:05;;;;;;;120.80;55.23;;;;;;;6.37;83.51;99845.00;5107902;28;20200;-58
2023/01/09 09:52:41;;;;;;;132.10;59.57;;;;;;;6.40;83.56;99850.25;5111149;28;20224;-57
2023/01/09 09:55:17;;;;;;;128.60;57.77;;;;;;;6.34;83.54;99850.03;5111996;28;20199;-56
2023/01/09 09:57:46;;;;;;;138.80;58.73;;;;;;;6.29;84.35;99841.31;5110929;28;20220;-56
2023/01/09 10:00:18;;;;;;;118.57;51.57;;;;;;;6.20;84.54;99840.09;5111055;28;20205;-57
2023/01/09 10:02:51;;;;;;;121.37;50.63;;;;;;;6.14;84.90;99833.06;5113666;28;20188;-57
2023/01/09 10:05:27;;;;;;;132.73;55.10;;;;;;;6.05;86.47;99819.06;5114494;28;20199;-57
2023/01/09 10:07:54;;;;;;;138.50;56.30;;;;;;;5.99;86.42;99821.41;5115367;28;20505;-56
2023/01/09 10:10:29;;;;;;;123.33;54.70;;;;;;;5.96;86.78;99826.38;5115188;28;20191;-56
2023/01/09 10:12:58;;;;;;;140.87;58.10;;;;;;;5.91;87.74;99829.59;5115391;28;20225;-56
2023/01/09 10:15:38;;;;;;;129.23;54.67;;;;;;;5.88;88.45;99826.94;5115778;28;20191;-56
2023/01/09 10:18:17;;;;;;;142.17;56.23;;;;;;;5.84;88.95;99821.63;5116086;28;20194;-55
2023/01/09 10:21:07;;;;;;;138.60;57.00;;;;;;;5.79;88.56;99813.81;5115733;28;20193;-56
2023/01/09 10:24:23;;;;;;;144.53;56.43;;;;;;;5.88;89.80;99806.53;5115670;28;20604;-56
2023/01/09 10:26:52;;;;;;;142.93;56.60;;;;;;;5.86;89.64;99805.59;5115159;28;20226;-56
2023/01/09 10:29:51;;;;;;;146.13;54.70;;;;;;;5.91;89.31;99808.34;5115348;28;20733;-56
2023/01/09 10:32:30;;;;;;;120.30;49.00;;;;;;;5.94;89.06;99808.47;5115888;28;20188;-56
2023/01/09 10:35:10;;;;;;;125.27;51.27;;;;;;;5.94;89.83;99799.13;5115572;28;20189;-55
2023/01/09 10:37:42;;;;;;;137.95;56.25;;;;;;;6.05;89.85;99791.00;5115070;28;20558;-56
2023/01/09 10:40:19;;;;;;;130.17;50.20;;;;;;;5.99;89.39;99771.25;5115613;28;20188;-57
2023/01/09 10:42:50;;;;;;;121.63;51.73;;;;;;;6.14;89.96;99789.69;5115798;28;20200;-56
2023/01/09 10:45:21;;;;;;;123.13;51.20;;;;;;;6.16;88.56;99788.06;5115686;28;20204;-56
2023/01/09 10:47:48;;;;;;;118.37;49.23;;;;;;;6.12;89.53;99791.34;5115694;28;20189;-56
2023/01/09 10:50:20;;;;;;;103.37;48.20;;;;;;;6.03;89.63;99788.41;5108616;28;20192;-56
2023/01/09 10:52:51;;;;;;;101.10;44.77;;;;;;;6.01;90.67;99781.53;5101892;28;20222;-56
2023/01/09 10:55:22;;;;;;;109.27;43.70;;;;;;;6.01;91.23;99773.88;5095801;28;20237;-55
2023/01/09 10:57:54;;;;;;;106.67;41.20;;;;;;;5.93;91.41;99776.13;5114916;28;20298;-56
2023/01/09 11:00:22;;;;;;;108.57;42.47;;;;;;;5.83;91.92;99753.59;5096888;28;20278;-56
2023/01/09 11:02:50;;;;;;;92.57;41.47;;;;;;;5.99;92.49;99768.69;5098877;28;20190;-56
2023/01/09 11:05:20;;;;;;;114.87;45.03;;;;;;;6.05;91.98;99768.94;5108025;28;20199;-54
2023/01/09 11:07:53;;;;;;;105.40;42.90;;;;;;;5.98;92.88;99753.34;5114894;28;20190;-55
2023/01/09 11:10:20;;;;;;;109.17;42.77;;;;;;;6.11;92.78;99773.41;5115907;28;20212;-57
2023/01/09 11:12:47;;;;;;;119.60;45.40;;;;;;;6.01;93.23;99768.78;5114825;28;20703;-56
2023/01/09 11:15:30;;;;;;;109.73;42.63;;;;;;;6.01;93.98;99774.75;5114740;28;20644;-56
2023/01/09 11:18:17;;;;;;;122.77;45.43;;;;;;;5.91;94.22;99759.88;5114728;28;20525;-56
2023/01/09 11:20:44;;;;;;;138.98;57.08;;;;;;;6.10;94.95;99759.78;5113488;28;20479;-56
2023/01/09 11:23:27;;;;;;;140.03;49.07;;;;;;;6.20;94.69;99759.34;5114546;28;20281;-56
2023/01/09 11:25:55;;;;;;;120.87;45.23;;;;;;;6.22;95.37;99749.16;5115336;28;20291;-56
2023/01/09 11:28:22;;;;;;;121.20;47.47;;;;;;;6.27;95.80;99751.06;5114987;28;20196;-56
2023/01/09 11:30:55;;;;;;;113.60;43.50;;;;;;;6.31;95.41;99750.41;5114436;28;20239;-55
2023/01/09 11:33:25;;;;;;;134.83;47.93;;;;;;;6.39;95.69;99743.88;5114538;28;20565;-56
2023/01/09 11:36:06;;;;;;;134.13;49.40;;;;;;;6.36;95.64;99737.78;5114446;28;20216;-56
2023/01/09 11:38:48;;;;;;;140.30;50.73;;;;;;;6.29;95.41;99723.94;5115135;28;20228;-57
2023/01/09 11:41:18;;;;;;;165.60;62.20;;;;;;;6.33;96.46;99722.38;5114115;28;20450;-56
2023/01/09 11:43:47;;;;;;;161.07;55.23;;;;;;;6.44;95.54;99715.97;5114752;28;20254;-56
2023/01/09 11:46:33;;;;;;;145.37;53.83;;;;;;;6.47;95.46;99705.88;5114456;28;20189;-56